createdAt,value
2023-03-13T00:02:37.746Z,100511.06
2023-03-13T00:05:40.269Z,100513.22
2023-03-13T00:08:44.747Z,100515.69
2023-03-13T00:11:47.468Z,100510.59
2023-03-13T00:14:50.010Z,100519.84
2023-03-13T00:17:52.573Z,100511.91
2023-03-13T00:21:09.437Z,100504.31
2023-03-13T00:24:12.619Z,100497.03
2023-03-13T00:27:15.114Z,100507.63
2023-03-13T00:30:18.002Z,100503.63
2023-03-13T00:33:20.483Z,100497.81
2023-03-13T00:36:25.740Z,100508.59
2023-03-13T00:39:28.424Z,100502.00
2023-03-13T00:42:31.294Z,100492.22
2023-03-13T00:45:33.842Z,100498.34
2023-03-13T00:48:36.916Z,100496.38
2023-03-13T00:51:39.713Z,100486.75
2023-03-13T00:54:43.149Z,100490.22
2023-03-13T00:57:45.675Z,100477.81
2023-03-13T01:00:48.405Z,100480.31
2023-03-13T01:03:57.446Z,100476.97
2023-03-13T01:07:00.118Z,100470.34
2023-03-13T01:10:02.653Z,100469.88
2023-03-13T01:13:06.868Z,100461.44
2023-03-13T01:16:14.894Z,100460.59
2023-03-13T01:19:18.057Z,100456.63
2023-03-13T01:22:22.375Z,100459.78
2023-03-13T01:25:24.860Z,100451.16
2023-03-13T01:28:27.895Z,100453.13
2023-03-13T01:31:33.521Z,100442.38
2023-03-13T01:34:37.665Z,100443.38
2023-03-13T01:37:40.225Z,100448.34
2023-03-13T01:40:48.067Z,100443.53
2023-03-13T01:43:51.212Z,100443.03
2023-03-13T01:46:53.919Z,100442.69
2023-03-13T01:49:59.593Z,100444.22
2023-03-13T01:53:16.714Z,100449.00
2023-03-13T01:56:29.924Z,100443.19
2023-03-13T01:59:44.260Z,100443.88
2023-03-13T02:02:50.698Z,100432.09
2023-03-13T02:05:53.808Z,100440.06
2023-03-13T02:09:05.201Z,100442.88
2023-03-13T02:12:17.592Z,100447.16
2023-03-13T02:15:25.418Z,100446.69
2023-03-13T02:18:28.444Z,100428.81
2023-03-13T02:22:02.608Z,100423.19
2023-03-13T02:25:05.402Z,100431.63
2023-03-13T02:28:14.423Z,100435.09
2023-03-13T02:31:17.768Z,100439.56
2023-03-13T02:34:28.006Z,100422.16
2023-03-13T02:37:33.668Z,100424.50
2023-03-13T02:40:44.475Z,100420.69
2023-03-13T02:43:48.419Z,100418.03
2023-03-13T02:46:52.770Z,100416.06
2023-03-13T02:49:59.260Z,100406.59
2023-03-13T02:53:06.753Z,100424.81
2023-03-13T02:56:11.614Z,100413.41
2023-03-13T02:59:14.347Z,100421.69
2023-03-13T03:02:19.495Z,100431.13
2023-03-13T03:05:22.919Z,100439.91
2023-03-13T03:08:25.670Z,100443.03
2023-03-13T03:11:28.740Z,100450.63
2023-03-13T03:14:39.844Z,100456.28
2023-03-13T03:17:43.004Z,100452.66
2023-03-13T03:20:45.809Z,100446.53
2023-03-13T03:23:48.475Z,100451.31
2023-03-13T03:26:51.234Z,100441.22
2023-03-13T03:30:01.901Z,100438.25
2023-03-13T03:33:07.424Z,100445.19
2023-03-13T03:36:13.847Z,100438.75
2023-03-13T03:39:16.907Z,100432.78
2023-03-13T03:42:20.162Z,100425.84
2023-03-13T03:45:22.795Z,100432.78
2023-03-13T03:48:26.237Z,100438.56
2023-03-13T03:51:29.293Z,100432.78
2023-03-13T03:54:31.982Z,100442.84
2023-03-13T03:57:35.597Z,100453.16
2023-03-13T04:00:42.916Z,100472.66
2023-03-13T04:03:45.586Z,100474.50
2023-03-13T04:06:49.495Z,100467.88
2023-03-13T04:09:52.196Z,100482.13
2023-03-13T04:13:02.727Z,100479.63
2023-03-13T04:16:09.804Z,100485.06
2023-03-13T04:19:13.248Z,100490.88
2023-03-13T04:22:17.303Z,100490.22
2023-03-13T04:25:26.900Z,100502.28
2023-03-13T04:28:32.547Z,100501.47
2023-03-13T04:31:36.348Z,100496.31
2023-03-13T04:34:56.178Z,100493.50
2023-03-13T04:38:17.287Z,100491.50
2023-03-13T04:41:28.678Z,100489.47
2023-03-13T04:44:43.771Z,100491.47
2023-03-13T04:48:23.573Z,100500.88
2023-03-13T04:52:02.040Z,100495.25
2023-03-13T04:55:27.466Z,100500.72
2023-03-13T04:59:02.247Z,100498.22
2023-03-13T05:02:15.595Z,100500.22
2023-03-13T05:05:36.532Z,100505.00
2023-03-13T05:09:08.340Z,100515.25
2023-03-13T05:12:43.529Z,100518.88
2023-03-13T05:16:06.965Z,100512.06
2023-03-13T05:19:28.195Z,100512.41
2023-03-13T05:22:50.067Z,100511.53
2023-03-13T05:26:12.882Z,100520.16
2023-03-13T05:29:39.844Z,100523.63
2023-03-13T05:32:50.579Z,100527.09
2023-03-13T05:36:31.430Z,100531.06
2023-03-13T05:39:49.266Z,100534.88
2023-03-13T05:43:14.984Z,100525.78
2023-03-13T05:46:36.596Z,100536.06
2023-03-13T05:50:03.597Z,100511.09
2023-03-13T05:53:32.161Z,100515.88
2023-03-13T05:56:45.030Z,100521.69
2023-03-13T06:00:03.489Z,100526.03
2023-03-13T06:03:41.278Z,100533.47
2023-03-13T06:06:46.819Z,100522.72
2023-03-13T06:09:51.188Z,100525.75
2023-03-13T06:12:55.962Z,100526.25
2023-03-13T06:16:01.986Z,100522.47
2023-03-13T06:19:17.590Z,100519.84
2023-03-13T06:22:20.242Z,100525.63
2023-03-13T06:25:23.881Z,100522.47
2023-03-13T06:28:26.445Z,100530.59
2023-03-13T06:31:28.990Z,100528.47
2023-03-13T06:34:31.526Z,100527.97
2023-03-13T06:37:34.626Z,100528.97
2023-03-13T06:40:37.747Z,100533.47
2023-03-13T06:43:40.933Z,100531.47
2023-03-13T06:46:43.580Z,100523.19
2023-03-13T06:49:46.311Z,100537.47
2023-03-13T06:52:49.046Z,100525.84
2023-03-13T06:55:51.763Z,100540.59
2023-03-13T06:58:54.556Z,100528.47
2023-03-13T07:02:00.158Z,100527.13
2023-03-13T07:05:05.959Z,100523.00
2023-03-13T07:08:16.388Z,100513.41
2023-03-13T07:11:19.027Z,100516.22
2023-03-13T07:14:21.973Z,100515.88
2023-03-13T07:17:25.317Z,100514.88
2023-03-13T07:20:29.748Z,100511.88
2023-03-13T07:23:35.707Z,100512.88
2023-03-13T07:26:38.255Z,100516.84
2023-03-13T07:29:40.970Z,100509.88
2023-03-13T07:32:43.732Z,100509.88
2023-03-13T07:35:53.347Z,100508.88
2023-03-13T07:38:56.787Z,100490.31
2023-03-13T07:41:59.813Z,100497.25
2023-03-13T07:45:02.853Z,100493.38
2023-03-13T07:48:05.685Z,100495.50
2023-03-13T07:51:12.838Z,100488.44
2023-03-13T07:54:15.494Z,100482.06
2023-03-13T07:57:17.941Z,100490.56
2023-03-13T08:00:21.605Z,100491.00
2023-03-13T08:03:25.042Z,100492.94
2023-03-13T08:06:33.415Z,100476.31
2023-03-13T08:09:37.473Z,100468.84
2023-03-13T08:12:40.338Z,100471.72
2023-03-13T08:15:42.870Z,100465.44
2023-03-13T08:18:48.089Z,100470.34
2023-03-13T08:21:51.435Z,100457.53
2023-03-13T08:24:57.948Z,100460.06
2023-03-13T08:28:05.473Z,100458.78
2023-03-13T08:31:12.147Z,100447.44
2023-03-13T08:34:17.084Z,100451.94
2023-03-13T08:37:20.496Z,100442.84
2023-03-13T08:40:28.557Z,100437.44
2023-03-13T08:43:31.776Z,100438.44
2023-03-13T08:46:37.288Z,100439.59
2023-03-13T08:49:41.959Z,100434.78
2023-03-13T08:52:46.483Z,100419.19
2023-03-13T08:55:54.040Z,100429.16
2023-03-13T08:59:02.779Z,100416.91
2023-03-13T09:02:07.041Z,100427.75
2023-03-13T09:05:10.894Z,100421.19
2023-03-13T09:08:16.746Z,100426.56
2023-03-13T09:11:22.104Z,100427.72
2023-03-13T09:14:25.177Z,100425.69
2023-03-13T09:17:27.783Z,100420.81
2023-03-13T09:20:30.540Z,100416.53
2023-03-13T09:23:33.299Z,100405.00
2023-03-13T09:26:35.978Z,100410.22
2023-03-13T09:29:41.628Z,100410.13
2023-03-13T09:32:44.751Z,100394.91
2023-03-13T09:35:51.278Z,100390.63
2023-03-13T09:38:56.507Z,100383.28
2023-03-13T09:42:19.188Z,100390.75
2023-03-13T09:45:31.323Z,100391.03
2023-03-13T09:48:42.301Z,100392.44
2023-03-13T09:51:53.186Z,100388.34
2023-03-13T09:55:22.910Z,100387.16
2023-03-13T09:58:31.371Z,100378.31
2023-03-13T10:01:37.176Z,100375.69
2023-03-13T10:04:46.857Z,100361.91
2023-03-13T10:07:50.270Z,100362.94
2023-03-13T10:11:08.828Z,100372.00
2023-03-13T10:14:17.144Z,100366.03
2023-03-13T10:17:46.828Z,100362.31
2023-03-13T10:21:01.566Z,100344.97
2023-03-13T10:24:29.048Z,100340.03
2023-03-13T10:27:31.882Z,100339.00
2023-03-13T10:30:37.148Z,100350.72
2023-03-13T10:33:41.744Z,100352.13
2023-03-13T10:36:50.263Z,100353.34
2023-03-13T10:39:53.899Z,100346.34
2023-03-13T10:43:22.189Z,100332.91
2023-03-13T10:46:30.766Z,100333.13
2023-03-13T10:49:33.989Z,100332.84
2023-03-13T10:52:48.662Z,100333.69
2023-03-13T10:56:10.655Z,100323.88
2023-03-13T10:59:31.535Z,100326.38
2023-03-13T11:02:39.046Z,100329.63
2023-03-13T11:05:43.358Z,100314.75
2023-03-13T11:08:45.952Z,100305.06
2023-03-13T11:11:51.384Z,100303.25
2023-03-13T11:14:58.464Z,100292.13
2023-03-13T11:18:00.964Z,100295.50
2023-03-13T11:21:17.255Z,100290.31
2023-03-13T11:24:27.222Z,100288.41
2023-03-13T11:27:29.864Z,100275.13
2023-03-13T11:30:45.090Z,100268.19
2023-03-13T11:33:55.320Z,100256.09
2023-03-13T11:37:15.583Z,100270.41
2023-03-13T11:40:20.554Z,100249.38
2023-03-13T11:43:42.031Z,100249.25
2023-03-13T11:46:51.055Z,100247.47
2023-03-13T11:49:59.455Z,100235.28
2023-03-13T11:53:10.870Z,100234.56
2023-03-13T11:56:39.706Z,100219.47
2023-03-13T11:59:53.219Z,100214.38
2023-03-13T12:03:06.122Z,100199.22
2023-03-13T12:06:29.049Z,100199.47
2023-03-13T12:09:43.210Z,100195.94
2023-03-13T12:13:12.477Z,100175.50
2023-03-13T12:16:20.965Z,100186.34
2023-03-13T12:19:37.403Z,100185.66
2023-03-13T12:22:45.494Z,100182.72
2023-03-13T12:25:51.235Z,100185.63
2023-03-13T12:29:18.799Z,100179.75
2023-03-13T12:32:37.473Z,100164.13
2023-03-13T12:35:44.424Z,100165.47
2023-03-13T12:38:58.530Z,100145.13
2023-03-13T12:42:39.994Z,100147.50
2023-03-13T12:46:16.548Z,100123.28
2023-03-13T12:49:34.488Z,100113.44
2023-03-13T12:53:18.481Z,100112.38
2023-03-13T12:56:53.801Z,100104.19
2023-03-13T13:00:05.714Z,100101.50
2023-03-13T13:03:31.823Z,100091.34
2023-03-13T13:06:56.704Z,100095.19
2023-03-13T13:10:10.584Z,100104.72
2023-03-13T13:13:16.384Z,100093.16
2023-03-13T13:16:22.234Z,100092.03
2023-03-13T13:19:24.726Z,100091.41
2023-03-13T13:22:37.153Z,100071.97
2023-03-13T13:25:39.871Z,100086.34
2023-03-13T13:28:44.053Z,100083.34
2023-03-13T13:31:53.196Z,100065.44
2023-03-13T13:35:03.351Z,100064.50
2023-03-13T13:38:19.497Z,100062.38
2023-03-13T13:41:33.870Z,100058.41
2023-03-13T13:45:16.787Z,100060.47
2023-03-13T13:48:34.180Z,100055.97
2023-03-13T13:52:01.396Z,100047.25
2023-03-13T13:55:26.818Z,100039.75
2023-03-13T13:58:32.431Z,100025.56
2023-03-13T14:01:37.057Z,100035.78
2023-03-13T14:04:45.739Z,100031.16
2023-03-13T14:07:54.255Z,100025.56
2023-03-13T14:11:18.821Z,100022.38
2023-03-13T14:14:23.587Z,100034.13
2023-03-13T14:17:26.114Z,100030.75
2023-03-13T14:20:29.468Z,100024.75
2023-03-13T14:23:43.314Z,100019.72
2023-03-13T14:26:45.971Z,100012.72
2023-03-13T14:30:09.428Z,100012.81
2023-03-13T14:33:13.253Z,100018.44
2023-03-13T14:36:15.729Z,100027.25
2023-03-13T14:39:32.175Z,100018.06
2023-03-13T14:42:46.001Z,100025.00
2023-03-13T14:45:49.652Z,100020.09
2023-03-13T14:48:55.691Z,100019.13
2023-03-13T14:52:05.438Z,100018.44
2023-03-13T14:55:27.649Z,100015.53
2023-03-13T14:58:30.933Z,100006.56
2023-03-13T15:01:33.464Z,100011.44
2023-03-13T15:05:11.487Z,100006.16
2023-03-13T15:08:21.077Z,100010.75
2023-03-13T15:11:34.064Z,100003.31
2023-03-13T15:14:42.752Z,100005.69
2023-03-13T15:17:45.492Z,99992.88
2023-03-13T15:21:20.489Z,99978.59
2023-03-13T15:24:23.087Z,99975.03
2023-03-13T15:27:26.540Z,99973.16
2023-03-13T15:30:29.305Z,99968.69
2023-03-13T15:33:32.307Z,99968.00
2023-03-13T15:36:34.805Z,99969.69
2023-03-13T15:39:37.577Z,99960.88
2023-03-13T15:42:40.274Z,99964.19
2023-03-13T15:45:45.008Z,99953.31
2023-03-13T15:48:48.187Z,99953.69
2023-03-13T15:51:50.794Z,99951.41
2023-03-13T15:54:53.293Z,99948.00
2023-03-13T15:57:55.869Z,99949.91
2023-03-13T16:01:00.661Z,99942.75
2023-03-13T16:04:03.856Z,99942.66
2023-03-13T16:07:11.631Z,99947.44
2023-03-13T16:10:25.121Z,99939.25
2023-03-13T16:13:27.962Z,99938.91
2023-03-13T16:16:37.270Z,99938.22
2023-03-13T16:19:40.472Z,99949.47
2023-03-13T16:22:44.130Z,99940.25
2023-03-13T16:25:48.548Z,99931.47
2023-03-13T16:28:51.459Z,99938.84
2023-03-13T16:31:53.989Z,99936.06
2023-03-13T16:34:56.531Z,99933.47
2023-03-13T16:38:00.922Z,99941.66
2023-03-13T16:41:03.562Z,99929.63
2023-03-13T16:44:06.138Z,99938.38
2023-03-13T16:47:19.464Z,99940.72
2023-03-13T16:50:37.272Z,99949.00
2023-03-13T16:53:39.721Z,99949.25
2023-03-13T16:56:43.444Z,99952.84
2023-03-13T16:59:45.981Z,99958.47
2023-03-13T17:02:48.986Z,99959.53
2023-03-13T17:05:51.563Z,99958.47
2023-03-13T17:08:54.420Z,99958.09
2023-03-13T17:11:57.201Z,99945.13
2023-03-13T17:14:59.638Z,99948.97
2023-03-13T17:18:02.567Z,99949.81
2023-03-13T17:21:06.572Z,99954.44
2023-03-13T17:24:09.792Z,99959.94
2023-03-13T17:27:16.769Z,99948.75
2023-03-13T17:30:28.285Z,99956.06
2023-03-13T17:33:31.269Z,99951.16
2023-03-13T17:36:35.016Z,99945.84
2023-03-13T17:39:37.587Z,99946.66
2023-03-13T17:42:40.327Z,99943.16
2023-03-13T17:45:42.901Z,99936.94
2023-03-13T17:48:47.195Z,99942.25
2023-03-13T17:51:51.289Z,99945.31
2023-03-13T17:54:54.475Z,99951.03
2023-03-13T17:57:57.099Z,99938.75
2023-03-13T18:00:59.703Z,99948.00
2023-03-13T18:04:02.875Z,99944.78
2023-03-13T18:07:20.930Z,99941.50
2023-03-13T18:10:28.377Z,99929.16
2023-03-13T18:13:31.290Z,99929.00
2023-03-13T18:16:50.414Z,99921.47
2023-03-13T18:19:53.462Z,99914.00
2023-03-13T18:23:00.748Z,99922.03
2023-03-13T18:26:21.693Z,99916.94
2023-03-13T18:29:29.301Z,99908.56
2023-03-13T18:32:32.013Z,99913.78
2023-03-13T18:35:35.016Z,99914.13
2023-03-13T18:38:38.196Z,99909.88
2023-03-13T18:41:41.145Z,99905.19
2023-03-13T18:44:44.012Z,99908.88
2023-03-13T18:47:48.492Z,99906.72
2023-03-13T18:50:52.517Z,99894.31
2023-03-13T18:53:55.941Z,99901.22
2023-03-13T18:56:58.841Z,99901.44
2023-03-13T19:00:01.410Z,99896.66
2023-03-13T19:03:04.008Z,99897.03
2023-03-13T19:06:15.972Z,99887.22
2023-03-13T19:09:42.232Z,99878.59
2023-03-13T19:12:44.031Z,99880.91
2023-03-13T19:15:47.328Z,99869.19
2023-03-13T19:18:51.822Z,99861.19
2023-03-13T19:21:57.656Z,99844.75
2023-03-13T19:25:00.964Z,99849.72
2023-03-13T19:28:06.216Z,99851.56
2023-03-13T19:31:10.799Z,99857.59
2023-03-13T19:34:17.124Z,99853.13
2023-03-13T19:37:19.787Z,99845.34
2023-03-13T19:40:26.301Z,99847.72
2023-03-13T19:43:29.157Z,99852.72
2023-03-13T19:46:33.694Z,99839.19
2023-03-13T19:49:36.652Z,99846.03
2023-03-13T19:52:39.459Z,99841.75
2023-03-13T19:55:42.336Z,99846.31
2023-03-13T19:58:46.993Z,99847.34
2023-03-13T20:01:50.276Z,99839.38
2023-03-13T20:04:53.245Z,99845.75
2023-03-13T20:07:56.018Z,99852.72
2023-03-13T20:10:59.042Z,99850.34
2023-03-13T20:14:02.349Z,99851.13
2023-03-13T20:17:05.148Z,99847.88
2023-03-13T20:20:09.048Z,99849.94
2023-03-13T20:23:12.091Z,99849.59
2023-03-13T20:26:17.648Z,99849.81
2023-03-13T20:29:20.465Z,99842.47
2023-03-13T20:32:23.326Z,99840.66
2023-03-13T20:35:27.213Z,99847.25
2023-03-13T20:38:30.278Z,99832.88
2023-03-13T20:41:33.066Z,99844.19
2023-03-13T20:44:35.967Z,99830.50
2023-03-13T20:47:39.268Z,99814.91
2023-03-13T20:50:43.175Z,99807.94
2023-03-13T20:53:46.399Z,99808.41
2023-03-13T20:56:49.196Z,99793.19
2023-03-13T20:59:52.036Z,99788.69
2023-03-13T21:02:55.031Z,99785.84
2023-03-13T21:05:58.280Z,99779.31
2023-03-13T21:09:03.330Z,99770.06
2023-03-13T21:12:06.483Z,99763.91
2023-03-13T21:15:09.954Z,99758.38
2023-03-13T21:18:12.929Z,99741.56
2023-03-13T21:21:18.950Z,99738.31
2023-03-13T21:24:21.644Z,99731.13
2023-03-13T21:27:24.191Z,99729.06
2023-03-13T21:30:29.639Z,99726.19
2023-03-13T21:33:32.577Z,99718.41
2023-03-13T21:36:35.242Z,99711.41
2023-03-13T21:39:41.184Z,99714.88
2023-03-13T21:42:43.923Z,99707.28
2023-03-13T21:45:46.495Z,99714.84
2023-03-13T21:48:49.809Z,99712.59
2023-03-13T21:51:52.767Z,99715.25
2023-03-13T21:54:55.332Z,99711.34
2023-03-13T21:57:58.248Z,99694.16
2023-03-13T22:01:00.860Z,99700.06
2023-03-13T22:04:03.716Z,99700.88
2023-03-13T22:07:06.456Z,99694.72
2023-03-13T22:10:10.599Z,99690.59
2023-03-13T22:13:13.977Z,99676.88
2023-03-13T22:16:16.465Z,99674.19
2023-03-13T22:19:19.210Z,99688.47
2023-03-13T22:22:22.123Z,99674.34
2023-03-13T22:25:24.709Z,99672.28
2023-03-13T22:28:27.855Z,99673.06
2023-03-13T22:31:31.104Z,99673.00
2023-03-13T22:34:33.522Z,99669.50
2023-03-13T22:37:36.246Z,99659.25
2023-03-13T22:40:40.038Z,99656.19
2023-03-13T22:43:42.638Z,99639.00
2023-03-13T22:46:45.171Z,99643.25
2023-03-13T22:49:47.686Z,99627.03
2023-03-13T22:52:50.719Z,99621.53
2023-03-13T22:55:53.156Z,99627.19
2023-03-13T22:58:55.721Z,99634.28
2023-03-13T23:01:58.342Z,99625.47
2023-03-13T23:05:01.383Z,99624.44
2023-03-13T23:08:04.248Z,99612.59
2023-03-13T23:11:07.275Z,99606.28
2023-03-13T23:14:09.958Z,99606.25
2023-03-13T23:17:12.547Z,99615.63
2023-03-13T23:20:17.488Z,99599.50
2023-03-13T23:23:20.231Z,99594.13
2023-03-13T23:26:22.688Z,99593.91
2023-03-13T23:29:25.536Z,99598.53
2023-03-13T23:32:28.501Z,99599.91
2023-03-13T23:35:31.436Z,99597.03
2023-03-13T23:38:34.008Z,99599.38
2023-03-13T23:41:38.883Z,99595.88
2023-03-13T23:44:41.496Z,99586.63
2023-03-13T23:47:44.812Z,99584.59
2023-03-13T23:50:47.327Z,99588.59
2023-03-13T23:53:50.565Z,99579.75
2023-03-13T23:56:53.090Z,99577.19
2023-03-13T23:59:55.841Z,99573.13
